Time;durP1;ratioP1;P1;durP2;ratioP2;P2;SDS_P1;SDS_P2;PMS_P1;PMS_P2;Temp;Humidity;BMP_temperature;BMP_pressure;BME280_temperature;BME280_humidity;BME280_pressure;Samples;Min_cycle;Max_cycle;Signal;HPM_P1;HPM_P2
2022/01/16 00:01:17;;;;;;;8.63;4.18;;;;;;;-0.44;66.10;95542.44;4991645;28;20253;-76
2022/01/16 00:06:28;;;;;;;8.95;3.30;;;;;;;-0.33;68.58;95514.16;4986297;28;20313;-75
2022/01/16 00:08:57;;;;;;;10.35;3.47;;;;;;;-0.30;68.54;95503.88;4981647;28;20544;-75
2022/01/16 00:11:25;;;;;;;8.57;3.15;;;;;;;-0.46;68.58;95493.97;4992515;28;20222;-75
2022/01/16 00:13:52;;;;;;;9.23;3.47;;;;;;;-0.39;69.57;95510.59;4982768;28;20255;-75
2022/01/16 00:16:19;;;;;;;8.95;4.05;;;;;;;-0.38;69.46;95517.53;4986204;28;20229;-74
2022/01/16 00:18:53;;;;;;;7.05;3.30;;;;;;;-0.37;70.84;95535.13;4982591;28;20228;-74
2022/01/16 00:21:21;;;;;;;7.75;3.38;;;;;;;-0.35;71.58;95559.66;4992510;28;20197;-75
2022/01/16 00:23:49;;;;;;;10.77;4.28;;;;;;;-0.36;71.50;95574.00;4992253;28;20324;-75
2022/01/16 00:26:18;;;;;;;6.45;3.50;;;;;;;-0.55;72.14;95586.66;4979148;28;20209;-75
2022/01/16 00:28:45;;;;;;;11.77;4.07;;;;;;;-0.42;73.22;95591.75;4980770;28;20237;-75
2022/01/16 00:31:13;;;;;;;9.55;3.95;;;;;;;-0.42;72.96;95634.31;4985525;28;20804;-75
2022/01/16 00:33:42;;;;;;;6.45;3.28;;;;;;;-0.33;73.89;95602.81;4984477;28;20225;-76
2022/01/16 00:36:10;;;;;;;10.15;5.13;;;;;;;-0.48;74.40;95506.69;4978507;28;20233;-75
2022/01/16 00:38:39;;;;;;;10.02;4.72;;;;;;;-0.48;74.20;95522.66;4992075;28;20231;-76
2022/01/16 00:41:06;;;;;;;6.85;3.70;;;;;;;-0.52;74.67;95585.38;4979158;28;20570;-77
2022/01/16 00:43:34;;;;;;;6.70;2.85;;;;;;;-0.55;74.86;95476.78;4990851;28;20226;-74
2022/01/16 00:46:01;;;;;;;8.05;4.45;;;;;;;-0.58;75.28;95443.47;4979644;28;20268;-75
2022/01/16 00:48:28;;;;;;;9.15;3.85;;;;;;;-0.55;74.85;95500.72;4978750;28;20202;-75
2022/01/16 00:50:56;;;;;;;10.20;4.28;;;;;;;-0.64;75.39;95409.81;4983481;28;20242;-74
2022/01/16 00:53:23;;;;;;;13.50;3.97;;;;;;;-0.73;75.57;95371.34;4985118;28;20232;-73
2022/01/16 00:55:49;;;;;;;12.00;4.40;;;;;;;-0.73;76.17;95424.56;4980439;28;20656;-75
2022/01/16 00:58:16;;;;;;;8.70;4.18;;;;;;;-0.73;76.35;95403.28;4978997;28;20206;-75
2022/01/16 01:00:45;;;;;;;11.35;4.30;;;;;;;-0.72;76.16;95434.97;4991461;28;20338;-75
2022/01/16 01:03:12;;;;;;;9.32;4.35;;;;;;;-0.81;76.62;95475.44;4988923;28;20232;-75
2022/01/16 01:05:39;;;;;;;8.77;4.40;;;;;;;-0.72;76.33;95501.47;4980535;28;20252;-74
2022/01/16 01:08:07;;;;;;;7.20;3.72;;;;;;;-0.76;76.25;95480.88;4978614;28;20673;-74
2022/01/16 01:10:37;;;;;;;10.55;3.88;;;;;;;-0.75;76.34;95459.38;4982375;28;20231;-76
2022/01/16 01:13:10;;;;;;;6.82;2.70;;;;;;;-0.79;76.60;95494.63;4985211;28;20234;-76
2022/01/16 01:15:44;;;;;;;7.40;3.50;;;;;;;-0.63;76.18;95493.09;4971050;28;20750;-75
2022/01/16 01:18:13;;;;;;;8.50;4.47;;;;;;;-0.60;76.15;95466.03;4985039;28;20198;-75
2022/01/16 01:20:42;;;;;;;4.85;2.83;;;;;;;-0.65;76.10;95473.91;4984193;28;20201;-75
2022/01/16 01:23:10;;;;;;;8.68;2.92;;;;;;;-0.56;75.49;95477.81;4985689;28;20265;-75
2022/01/16 01:25:38;;;;;;;10.55;4.07;;;;;;;-0.50;75.66;95471.53;4984787;28;20205;-74
2022/01/16 01:28:06;;;;;;;6.97;2.67;;;;;;;-0.44;75.39;95491.88;4978051;28;20229;-75
2022/01/16 01:30:34;;;;;;;8.73;3.60;;;;;;;-0.43;75.07;95488.19;4978305;28;20217;-74
2022/01/16 01:33:00;;;;;;;3.15;1.90;;;;;;;-0.49;75.29;95478.47;4984679;28;20207;-74
2022/01/16 01:35:30;;;;;;;7.25;3.35;;;;;;;-0.42;75.17;95481.81;4984673;28;20231;-75
2022/01/16 01:37:57;;;;;;;10.23;4.07;;;;;;;-0.46;75.19;95499.28;4979843;28;20257;-75
2022/01/16 01:40:26;;;;;;;10.20;4.35;;;;;;;-0.47;74.98;95497.66;4978232;28;20210;-75
2022/01/16 01:43:16;;;;;;;8.43;3.15;;;;;;;-0.41;74.80;95518.81;4982789;28;20235;-75
2022/01/16 01:51:18;;;;;;;7.70;2.58;;;;;;;-0.39;74.66;95539.88;4982403;28;20205;-75
2022/01/16 01:53:46;;;;;;;6.38;2.85;;;;;;;-0.38;74.69;95521.00;4978456;28;20245;-75
2022/01/16 01:56:17;;;;;;;4.70;3.05;;;;;;;-0.36;74.52;95510.13;4980217;28;20209;-75
2022/01/16 01:58:44;;;;;;;5.95;3.05;;;;;;;-0.39;74.90;95527.38;4990218;28;20298;-75
2022/01/16 02:01:11;;;;;;;8.60;3.88;;;;;;;-0.33;74.77;95525.63;4993706;28;20730;-75
2022/01/16 02:03:42;;;;;;;10.52;4.93;;;;;;;-0.32;75.08;95516.59;4995232;28;20213;-74
2022/01/16 02:06:10;;;;;;;9.90;3.00;;;;;;;-0.32;74.77;95529.09;4994893;28;20608;-74
2022/01/16 02:08:38;;;;;;;6.03;3.33;;;;;;;-0.33;75.37;95525.63;4981722;28;20216;-75
2022/01/16 02:11:05;;;;;;;7.80;3.80;;;;;;;-0.39;75.06;95531.88;4982188;28;20226;-75
2022/01/16 02:13:33;;;;;;;7.00;3.97;;;;;;;-0.40;75.29;95547.03;4982238;28;20233;-76
2022/01/16 02:35:22;;;;;;;7.60;4.03;;;;;;;-1.04;77.65;95540.13;4973260;28;20296;-74
2022/01/16 02:37:49;;;;;;;3.17;1.95;;;;;;;-1.12;78.12;95537.81;4994232;28;20229;-74
2022/01/16 02:40:23;;;;;;;21.38;9.43;;;;;;;-1.27;79.20;95534.81;4994028;28;20560;-75
2022/01/16 02:42:52;;;;;;;9.40;4.95;;;;;;;-1.35;80.05;95527.19;4986013;28;20245;-74
2022/01/16 02:45:31;;;;;;;15.63;4.90;;;;;;;-1.41;80.95;95520.16;4986832;28;20628;-75
2022/01/16 02:48:00;;;;;;;6.72;3.95;;;;;;;-1.41;81.63;95530.78;4973908;28;20194;-74
2022/01/16 02:50:27;;;;;;;5.07;2.65;;;;;;;-1.51;81.32;95518.88;4977920;28;20244;-75
2022/01/16 02:52:54;;;;;;;8.52;5.35;;;;;;;-1.52;82.01;95532.38;4983701;28;20213;-75
2022/01/16 02:55:24;;;;;;;12.98;5.57;;;;;;;-1.55;81.99;95527.53;4977481;28;20229;-74
2022/01/16 02:57:52;;;;;;;8.35;3.30;;;;;;;-1.51;82.07;95524.19;4993666;28;20216;-75
2022/01/16 03:00:20;;;;;;;7.43;3.78;;;;;;;-1.52;82.33;95514.59;4993504;28;20575;-75
2022/01/16 03:02:48;;;;;;;7.35;4.30;;;;;;;-1.52;82.74;95527.88;4993862;28;20213;-74
2022/01/16 03:05:15;;;;;;;8.27;4.45;;;;;;;-1.50;83.06;95531.09;4980950;28;20205;-73
2022/01/16 03:07:45;;;;;;;10.60;3.83;;;;;;;-1.45;82.94;95512.63;4981043;28;20692;-75
2022/01/16 03:10:33;;;;;;;7.97;4.15;;;;;;;-1.41;82.64;95525.47;4987740;28;20229;-74
2022/01/16 03:13:02;;;;;;;8.55;5.40;;;;;;;-1.32;82.46;95516.09;4989172;28;20246;-75
2022/01/16 03:15:29;;;;;;;9.50;4.50;;;;;;;-1.16;81.94;95520.72;4993087;28;20245;-75
2022/01/16 03:23:26;;;;;;;7.70;4.22;;;;;;;-1.11;81.83;95526.16;4993618;28;20201;-76
2022/01/16 03:25:53;;;;;;;10.30;4.88;;;;;;;-1.15;82.09;95522.34;4980090;28;20203;-75
2022/01/16 03:28:25;;;;;;;9.00;5.07;;;;;;;-1.16;81.87;95520.72;4985101;28;20230;-75
2022/01/16 03:30:52;;;;;;;12.63;6.57;;;;;;;-1.14;81.99;95518.63;4987005;28;20562;-77
2022/01/16 03:33:20;;;;;;;12.00;5.70;;;;;;;-1.10;82.03;95525.91;4983547;28;20312;-76
2022/01/16 03:35:47;;;;;;;7.95;3.60;;;;;;;-1.10;81.51;95525.13;4980027;28;20217;-75
2022/01/16 03:38:15;;;;;;;11.00;5.15;;;;;;;-1.11;81.68;95534.13;4983161;28;20203;-75
2022/01/16 03:40:42;;;;;;;8.30;4.72;;;;;;;-1.14;81.68;95524.75;4986606;28;20210;-75
2022/01/16 03:43:14;;;;;;;6.40;3.42;;;;;;;-1.11;81.31;95528.81;4983694;28;20240;-75
2022/01/16 03:45:44;;;;;;;12.45;5.43;;;;;;;-0.95;80.91;95544.03;4980026;28;20225;-76
2022/01/16 03:48:11;;;;;;;8.60;3.97;;;;;;;-0.86;80.46;95537.34;4981389;28;20201;-75
2022/01/16 03:50:39;;;;;;;9.88;5.35;;;;;;;-0.90;80.05;95535.38;4985716;28;20253;-75
2022/01/16 03:53:06;;;;;;;11.07;5.65;;;;;;;-1.03;80.46;95531.09;4973522;28;20392;-77
2022/01/16 03:55:34;;;;;;;12.98;5.68;;;;;;;-0.92;81.10;95538.25;4986686;28;20234;-76
2022/01/16 03:58:02;;;;;;;9.23;4.75;;;;;;;-0.97;80.75;95551.47;4985654;28;20205;-74
2022/01/16 04:00:29;;;;;;;10.32;5.13;;;;;;;-0.92;80.87;95538.25;4979299;28;20723;-76
2022/01/16 04:02:57;;;;;;;8.13;4.95;;;;;;;-1.06;80.75;95547.50;4979846;28;20206;-76
2022/01/16 04:05:24;;;;;;;9.10;4.80;;;;;;;-0.85;80.52;95544.28;4973355;28;20217;-75
2022/01/16 04:07:51;;;;;;;8.25;4.53;;;;;;;-0.84;80.56;95543.22;4986598;28;20555;-75
2022/01/16 04:10:20;;;;;;;10.80;4.97;;;;;;;-1.04;80.52;95545.44;4980361;28;20589;-76
2022/01/16 04:12:47;;;;;;;9.45;4.90;;;;;;;-0.90;80.48;95557.44;4979477;28;20308;-76
2022/01/16 04:15:33;;;;;;;8.02;3.88;;;;;;;-0.96;80.70;95552.25;4984685;28;20348;-76
2022/01/16 04:18:05;;;;;;;12.98;3.75;;;;;;;-1.01;80.24;95555.59;4986235;28;20202;-75
2022/01/16 04:20:33;;;;;;;17.60;5.95;;;;;;;-1.11;80.77;95550.88;4972923;28;20214;-75
2022/01/16 04:23:01;;;;;;;10.75;5.57;;;;;;;-0.99;80.43;95564.16;4989859;28;20272;-75
2022/01/16 04:25:28;;;;;;;13.00;5.45;;;;;;;-0.93;80.05;95571.19;4991705;28;20287;-75
2022/01/16 04:27:55;;;;;;;12.25;4.82;;;;;;;-0.95;80.04;95564.50;4991974;28;20225;-75
2022/01/16 04:30:22;;;;;;;10.68;5.18;;;;;;;-0.96;80.26;95571.69;4992622;28;20213;-76
2022/01/16 04:32:49;;;;;;;9.90;4.90;;;;;;;-0.95;79.95;95569.81;4992435;28;20221;-76
2022/01/16 04:35:17;;;;;;;13.30;6.03;;;;;;;-0.90;80.04;95578.72;4992310;28;20233;-76
2022/01/16 04:37:44;;;;;;;13.02;6.22;;;;;;;-0.94;79.49;95577.56;4991955;28;20786;-76
2022/01/16 04:40:12;;;;;;;16.67;5.45;;;;;;;-0.77;79.22;95578.47;4992275;28;20206;-76
2022/01/16 04:45:24;;;;;;;15.40;5.20;;;;;;;-0.67;79.30;95566.44;4989644;28;20537;-76
2022/01/16 04:47:52;;;;;;;10.25;5.82;;;;;;;-0.68;79.15;95572.81;4981454;28;20206;-76
2022/01/16 04:50:22;;;;;;;11.93;5.82;;;;;;;-0.66;79.21;95570.69;4977969;28;20241;-76
2022/01/16 04:52:49;;;;;;;10.10;5.20;;;;;;;-0.60;78.60;95567.13;4981164;28;20210;-76
2022/01/16 04:55:17;;;;;;;12.90;6.50;;;;;;;-0.64;78.57;95555.31;4985639;28;20574;-76
2022/01/16 04:57:44;;;;;;;13.85;6.20;;;;;;;-0.76;78.30;95564.13;4983039;28;20288;-76
2022/01/16 05:00:15;;;;;;;11.45;5.03;;;;;;;-0.69;78.74;95568.53;4991700;28;20579;-76
2022/01/16 05:02:42;;;;;;;11.80;6.35;;;;;;;-0.71;78.32;95560.78;4991276;28;20204;-77
2022/01/16 05:05:10;;;;;;;14.13;7.50;;;;;;;-0.78;78.36;95571.53;4978345;28;20202;-76
2022/01/16 05:07:39;;;;;;;10.98;4.03;;;;;;;-0.80;78.13;95568.28;4979416;28;20206;-76
2022/01/16 05:10:07;;;;;;;14.13;6.53;;;;;;;-0.89;78.59;95559.06;4990818;28;20229;-76
2022/01/16 05:12:37;;;;;;;11.68;5.43;;;;;;;-0.84;78.79;95564.50;4991649;28;20293;-76
2022/01/16 05:17:48;;;;;;;11.45;6.32;;;;;;;-0.81;79.04;95556.03;4988374;28;20197;-75
2022/01/16 05:20:15;;;;;;;7.15;4.45;;;;;;;-0.72;79.25;95559.97;4981303;28;20213;-74
2022/01/16 05:22:44;;;;;;;7.35;4.53;;;;;;;-0.64;78.24;95547.34;4991152;28;20668;-75
2022/01/16 05:25:13;;;;;;;10.07;4.88;;;;;;;-0.67;78.18;95555.78;4991238;28;20206;-75
2022/01/16 05:27:40;;;;;;;14.90;5.78;;;;;;;-0.55;78.34;95560.06;4978735;28;20249;-75
2022/01/16 05:30:09;;;;;;;8.75;3.47;;;;;;;-0.57;78.10;95566.66;4981575;28;20203;-75
2022/01/16 05:32:36;;;;;;;8.30;3.05;;;;;;;-0.74;78.45;95564.72;4985621;28;20210;-76
2022/01/16 05:35:04;;;;;;;7.78;4.43;;;;;;;-0.60;78.14;95567.13;4983004;28;20245;-76
2022/01/16 05:37:31;;;;;;;11.90;4.85;;;;;;;-0.69;77.94;95568.53;4982467;28;20230;-76
2022/01/16 05:39:59;;;;;;;10.45;4.25;;;;;;;-0.68;77.98;95564.84;4984503;28;20202;-74
2022/01/16 05:42:26;;;;;;;6.68;3.58;;;;;;;-0.76;77.77;95558.00;4988992;28;20222;-76
2022/01/16 05:44:53;;;;;;;7.43;3.88;;;;;;;-0.67;77.53;95577.06;4987353;28;20202;-76
2022/01/16 05:47:20;;;;;;;8.25;4.07;;;;;;;-0.80;77.61;95576.28;4982347;28;20209;-74
2022/01/16 05:49:47;;;;;;;5.97;3.78;;;;;;;-0.81;77.89;95572.00;4983546;28;20234;-75
2022/01/16 05:52:14;;;;;;;7.72;3.72;;;;;;;-0.68;78.01;95583.47;4988314;28;20565;-75
2022/01/16 05:54:42;;;;;;;6.70;3.88;;;;;;;-0.76;77.60;95585.41;4986936;28;20738;-77
2022/01/16 05:57:12;;;;;;;9.82;5.32;;;;;;;-0.74;77.32;95582.53;4981801;28;20202;-76
2022/01/16 05:59:38;;;;;;;9.15;4.32;;;;;;;-0.79;77.26;95585.06;4982397;28;20717;-76
2022/01/16 06:02:06;;;;;;;10.00;5.88;;;;;;;-0.71;77.80;95592.72;4988927;28;20610;-76
2022/01/16 06:04:36;;;;;;;10.50;5.32;;;;;;;-0.68;77.53;95586.91;4988392;28;20683;-75
2022/01/16 06:07:08;;;;;;;12.50;5.07;;;;;;;-0.44;77.11;95588.50;4982167;28;20309;-76
2022/01/16 06:09:35;;;;;;;12.75;6.40;;;;;;;-0.49;76.96;95591.03;4993999;28;20268;-75
2022/01/16 06:12:02;;;;;;;6.65;4.28;;;;;;;-0.57;76.71;95587.94;4975910;28;20233;-75
2022/01/16 06:14:30;;;;;;;16.73;6.40;;;;;;;-0.53;76.58;95589.06;4988121;28;20233;-76
2022/01/16 06:17:06;;;;;;;10.25;5.85;;;;;;;-0.40;76.09;95583.50;4975827;28;20980;-77
2022/01/16 06:19:33;;;;;;;7.78;3.30;;;;;;;-0.36;75.46;95584.66;4988759;28;20198;-75
2022/01/16 06:22:00;;;;;;;8.52;4.85;;;;;;;-0.38;76.08;95592.06;4975253;28;20209;-75
2022/01/16 06:24:27;;;;;;;13.20;6.07;;;;;;;-0.29;75.71;95588.00;4988118;28;20203;-75
2022/01/16 06:26:54;;;;;;;10.65;5.78;;;;;;;-0.20;74.95;95586.56;4984495;28;20728;-74
2022/01/16 06:29:22;;;;;;;11.77;5.47;;;;;;;-0.13;74.60;95595.22;4981503;28;20207;-74
2022/01/16 06:31:51;;;;;;;10.32;5.25;;;;;;;0.08;74.75;95600.94;4984226;28;20210;-75
2022/01/16 06:34:18;;;;;;;11.52;5.70;;;;;;;0.09;73.94;95591.91;4992296;28;20232;-74
2022/01/16 06:36:45;;;;;;;9.43;5.40;;;;;;;0.11;73.64;95611.13;4994108;28;20727;-75
2022/01/16 06:39:13;;;;;;;8.07;4.38;;;;;;;0.16;72.83;95613.88;4989669;28;20929;-75
2022/01/16 06:41:41;;;;;;;9.23;5.43;;;;;;;-0.01;73.06;95624.50;4975172;28;20223;-74
2022/01/16 06:44:08;;;;;;;9.43;4.95;;;;;;;0.12;72.83;95623.41;4992679;28;20202;-74
2022/01/16 06:46:35;;;;;;;10.73;5.07;;;;;;;0.26;72.29;95616.75;4993463;28;20236;-75
2022/01/16 06:49:04;;;;;;;10.35;5.18;;;;;;;0.50;72.02;95614.78;4994008;28;20624;-75
2022/01/16 06:51:31;;;;;;;10.00;5.05;;;;;;;0.60;71.51;95610.41;4981900;28;20276;-75
2022/01/16 06:53:57;;;;;;;9.57;5.22;;;;;;;0.87;70.41;95612.44;4987097;28;20217;-75
2022/01/16 06:56:25;;;;;;;9.27;5.70;;;;;;;0.89;70.29;95618.34;4986960;28;20233;-75
2022/01/16 06:58:53;;;;;;;13.50;5.72;;;;;;;0.97;70.43;95623.28;4992160;28;20233;-75
2022/01/16 07:01:19;;;;;;;17.60;7.13;;;;;;;0.56;69.78;95627.13;4993855;28;20567;-75
2022/01/16 07:03:46;;;;;;;13.90;6.38;;;;;;;0.47;70.52;95610.72;4993896;28;20210;-75
2022/01/16 07:06:15;;;;;;;12.60;6.95;;;;;;;0.80;70.40;95622.47;4993551;28;20688;-75
2022/01/16 07:08:42;;;;;;;10.52;5.57;;;;;;;0.79;69.88;95634.19;4993521;28;20229;-75
2022/01/16 07:11:10;;;;;;;10.85;5.20;;;;;;;0.70;69.79;95641.75;4991741;28;20218;-75
2022/01/16 07:13:36;;;;;;;9.55;5.57;;;;;;;0.94;68.87;95647.78;4981293;28;20221;-75
2022/01/16 07:16:04;;;;;;;15.93;6.80;;;;;;;1.21;68.70;95637.28;4979749;28;20564;-74
2022/01/16 07:18:31;;;;;;;15.23;6.80;;;;;;;1.35;68.31;95642.03;4985676;28;20239;-74
2022/01/16 07:20:58;;;;;;;15.93;7.20;;;;;;;1.55;67.57;95632.69;4975540;28;20205;-74
2022/01/16 07:23:27;;;;;;;15.77;5.57;;;;;;;1.03;67.96;95641.00;4993269;28;20217;-75
2022/01/16 07:25:54;;;;;;;9.02;4.45;;;;;;;0.40;70.12;95642.06;4990152;28;20221;-75
2022/01/16 07:28:21;;;;;;;9.20;4.72;;;;;;;0.33;70.58;95636.03;4981781;28;20213;-75
2022/01/16 07:30:48;;;;;;;9.25;5.05;;;;;;;0.49;70.06;95639.81;4980145;28;20207;-75
2022/01/16 07:33:15;;;;;;;8.75;4.88;;;;;;;0.47;69.65;95645.38;4984057;28;20226;-75
2022/01/16 07:35:42;;;;;;;13.40;6.05;;;;;;;0.44;69.80;95648.50;4988931;28;20245;-74
2022/01/16 07:38:09;;;;;;;11.88;5.45;;;;;;;0.71;70.01;95638.84;4992769;28;20233;-74
2022/01/16 07:40:38;;;;;;;4.15;1.98;;;;;;;0.47;69.48;95647.22;4980006;28;20228;-73
2022/01/16 07:43:05;;;;;;;10.25;4.72;;;;;;;0.08;70.84;95649.69;4983061;28;20286;-73
2022/01/16 07:45:32;;;;;;;9.57;4.88;;;;;;;0.03;71.80;95656.75;4989982;28;20294;-72
2022/01/16 07:47:59;;;;;;;14.93;7.15;;;;;;;0.31;71.96;95659.47;4983173;28;20258;-73
2022/01/16 07:50:26;;;;;;;14.27;5.97;;;;;;;0.47;70.64;95652.56;4986643;28;20257;-74
2022/01/16 07:52:53;;;;;;;12.65;6.50;;;;;;;0.24;71.15;95654.28;4984088;28;20212;-73
2022/01/16 07:55:22;;;;;;;5.20;2.60;;;;;;;0.17;70.74;95658.13;4977442;28;20240;-73
2022/01/16 07:57:51;;;;;;;16.50;5.88;;;;;;;0.30;71.55;95665.81;4992356;28;20218;-76
2022/01/16 08:00:19;;;;;;;10.77;6.13;;;;;;;0.63;69.88;95663.25;4992102;28;20197;-76
2022/01/16 08:02:46;;;;;;;15.80;7.32;;;;;;;0.44;70.77;95680.50;4992491;28;20299;-76
2022/01/16 08:05:13;;;;;;;13.43;6.43;;;;;;;0.52;70.63;95666.78;4979591;28;20216;-73
2022/01/16 08:07:40;;;;;;;10.60;6.18;;;;;;;0.62;71.05;95669.63;4980103;28;20202;-75
2022/01/16 08:10:08;;;;;;;14.18;7.18;;;;;;;1.01;70.21;95664.44;4990337;28;20249;-74
2022/01/16 08:12:34;;;;;;;17.30;7.05;;;;;;;1.31;68.55;95648.91;4979975;28;20209;-74
2022/01/16 08:15:03;;;;;;;14.93;6.30;;;;;;;1.83;67.42;95651.22;4991357;28;20615;-73
2022/01/16 08:17:30;;;;;;;12.80;5.53;;;;;;;1.32;68.24;95663.06;4992324;28;20217;-74
2022/01/16 08:19:57;;;;;;;19.10;10.35;;;;;;;1.47;69.08;95657.94;4978790;28;20209;-74
2022/01/16 08:22:24;;;;;;;29.02;9.23;;;;;;;1.86;67.28;95661.41;4978840;28;20199;-74
2022/01/16 08:24:51;;;;;;;23.70;10.93;;;;;;;2.19;67.08;95652.47;4985463;28;20287;-75
2022/01/16 08:27:18;;;;;;;21.23;10.48;;;;;;;1.71;66.96;95650.53;4985202;28;20209;-75
2022/01/16 08:29:45;;;;;;;15.32;7.97;;;;;;;1.58;68.11;95634.88;4991793;28;20298;-75
2022/01/16 08:32:13;;;;;;;11.15;4.85;;;;;;;1.79;67.55;95650.91;4991486;28;20245;-73
2022/01/16 08:34:40;;;;;;;8.38;4.90;;;;;;;1.67;67.98;95658.22;4991713;28;20236;-73
2022/01/16 08:37:07;;;;;;;23.20;9.10;;;;;;;1.76;67.45;95658.63;4978764;28;20241;-74
2022/01/16 08:39:34;;;;;;;18.90;9.48;;;;;;;2.17;66.93;95645.78;4984591;28;20216;-74
2022/01/16 08:42:00;;;;;;;16.45;9.32;;;;;;;1.43;68.44;95646.94;4985433;28;20229;-74
2022/01/16 08:44:27;;;;;;;14.35;7.68;;;;;;;1.39;68.99;95645.81;4979918;28;20201;-74
2022/01/16 08:46:54;;;;;;;17.65;9.52;;;;;;;1.12;69.28;95652.84;4978353;28;20230;-75
2022/01/16 08:49:23;;;;;;;14.50;8.63;;;;;;;1.62;68.07;95649.34;4983797;28;20736;-76
2022/01/16 08:51:50;;;;;;;17.80;7.05;;;;;;;1.66;67.81;95640.56;4985148;28;20206;-75
2022/01/16 08:54:17;;;;;;;16.92;7.57;;;;;;;1.50;68.00;95640.63;4980759;28;20206;-74
2022/01/16 08:56:44;;;;;;;22.00;10.50;;;;;;;1.59;68.82;95634.63;4977893;28;20262;-75
2022/01/16 08:59:10;;;;;;;17.08;8.40;;;;;;;1.57;68.42;95635.91;4992047;28;20221;-76
2022/01/16 09:01:37;;;;;;;23.20;9.48;;;;;;;1.59;68.34;95633.81;4990835;28;20206;-75
2022/01/16 09:04:04;;;;;;;8.98;4.32;;;;;;;1.27;68.80;95631.75;4982705;28;20217;-73
2022/01/16 09:06:32;;;;;;;10.48;5.43;;;;;;;1.14;69.57;95631.28;4987648;28;20217;-74
2022/01/16 09:09:00;;;;;;;16.95;5.90;;;;;;;1.03;69.94;95636.47;4991666;28;20549;-76
2022/01/16 09:11:27;;;;;;;11.02;5.28;;;;;;;1.11;69.25;95637.91;4990816;28;20215;-76
2022/01/16 09:13:54;;;;;;;16.75;8.32;;;;;;;1.51;69.45;95631.53;4990848;28;20225;-75
2022/01/16 09:16:22;;;;;;;19.88;10.02;;;;;;;1.74;67.71;95615.31;4991542;28;20234;-75
2022/01/16 09:18:49;;;;;;;18.45;9.18;;;;;;;1.82;67.95;95611.41;4989112;28;20573;-75
2022/01/16 09:21:17;;;;;;;19.15;9.30;;;;;;;1.60;67.69;95614.06;4989585;28;20198;-75
2022/01/16 09:23:47;;;;;;;16.77;8.07;;;;;;;1.55;68.17;95616.66;4990976;28;20210;-76
2022/01/16 09:26:14;;;;;;;16.73;9.48;;;;;;;1.55;68.50;95612.13;4977707;28;20276;-73
2022/01/16 09:28:42;;;;;;;9.85;6.20;;;;;;;1.54;68.19;95615.84;4979741;28;20225;-74
2022/01/16 09:31:09;;;;;;;17.20;7.55;;;;;;;1.28;69.25;95611.22;4984974;28;20214;-76
2022/01/16 09:33:36;;;;;;;20.75;9.68;;;;;;;1.43;68.85;95612.25;4982430;28;20226;-75
2022/01/16 09:36:03;;;;;;;9.13;5.47;;;;;;;1.21;69.58;95610.59;4976997;28;20233;-76
2022/01/16 09:38:30;;;;;;;17.65;8.43;;;;;;;1.11;70.18;95613.88;4978140;28;20261;-74
2022/01/16 09:40:59;;;;;;;19.88;8.80;;;;;;;1.08;69.98;95603.72;4984791;28;20234;-74
2022/01/16 09:43:26;;;;;;;10.95;4.03;;;;;;;1.11;69.71;95610.41;4984814;28;20206;-76
2022/01/16 09:45:53;;;;;;;5.68;3.45;;;;;;;0.87;70.17;95604.44;4977465;28;20209;-76
2022/01/16 09:48:20;;;;;;;15.52;9.02;;;;;;;0.82;71.48;95601.72;4977541;28;20317;-75
2022/01/16 09:50:47;;;;;;;6.78;3.35;;;;;;;0.90;71.15;95593.31;4977873;28;20241;-76
2022/01/16 09:53:15;;;;;;;19.30;7.43;;;;;;;0.96;71.35;95589.66;4991421;28;20568;-78
2022/01/16 09:55:41;;;;;;;16.35;8.05;;;;;;;0.97;70.56;95584.06;4977974;28;20237;-80
2022/01/16 09:58:10;;;;;;;16.13;8.57;;;;;;;1.32;69.81;95581.13;4990246;28;20272;-80
2022/01/16 10:00:37;;;;;;;16.40;8.50;;;;;;;1.30;69.49;95577.88;4988368;28;20225;-76
2022/01/16 10:03:05;;;;;;;17.85;8.07;;;;;;;1.38;68.68;95574.78;4989206;28;20618;-77
2022/01/16 10:05:35;;;;;;;10.75;5.20;;;;;;;1.57;68.25;95571.84;4986697;28;20284;-77
2022/01/16 10:08:05;;;;;;;14.20;6.85;;;;;;;1.55;68.43;95565.94;4987843;28;20253;-77
2022/01/16 10:10:37;;;;;;;12.68;6.68;;;;;;;1.77;67.32;95564.09;4990935;28;20229;-78
2022/01/16 10:15:58;;;;;;;11.60;6.55;;;;;;;2.05;67.13;95563.06;5126729;27;1471111;-77
2022/01/16 10:18:36;;;;;;;22.67;9.15;;;;;;;2.17;66.94;95549.56;5156802;27;20202;-76
2022/01/16 10:21:03;;;;;;;9.68;5.45;;;;;;;2.34;65.35;95555.59;5150393;27;20211;-76
2022/01/16 10:23:30;;;;;;;10.40;5.13;;;;;;;2.26;66.13;95545.38;5149831;27;20208;-75
2022/01/16 10:25:57;;;;;;;13.85;7.68;;;;;;;2.23;67.23;95553.88;5165818;27;20234;-76
2022/01/16 10:28:26;;;;;;;15.45;8.05;;;;;;;2.20;66.80;95544.50;5170685;27;20207;-76
2022/01/16 10:30:56;;;;;;;20.30;7.97;;;;;;;2.14;67.06;95551.66;5169903;27;20271;-77
2022/01/16 10:33:27;;;;;;;17.38;8.85;;;;;;;2.18;67.06;95545.84;5159063;27;20230;-78
2022/01/16 10:35:57;;;;;;;14.02;7.10;;;;;;;2.03;65.93;95538.47;5169546;27;20219;-78
2022/01/16 10:38:26;;;;;;;9.82;4.63;;;;;;;1.86;66.35;95527.84;5169761;27;20585;-77
2022/01/16 10:40:54;;;;;;;15.13;7.72;;;;;;;1.98;66.12;95525.03;5169986;27;20216;-77
2022/01/16 10:43:36;;;;;;;10.68;6.18;;;;;;;2.11;65.90;95522.78;5169914;27;20208;-79
2022/01/16 10:46:04;;;;;;;16.50;8.30;;;;;;;2.05;65.63;95521.09;5170041;27;20216;-78
2022/01/16 10:48:32;;;;;;;144.07;45.08;;;;;;;2.29;66.32;95520.81;5169358;27;20200;-77
2022/01/16 10:51:00;;;;;;;9.60;4.22;;;;;;;2.43;64.33;95522.00;5170154;27;20203;-74
2022/01/16 10:53:29;;;;;;;19.35;5.35;;;;;;;2.22;64.90;95514.84;5169053;27;20741;-73
2022/01/16 10:55:58;;;;;;;13.18;6.60;;;;;;;2.18;65.67;95511.09;5165816;27;20683;-74
2022/01/16 10:58:28;;;;;;;5.75;4.13;;;;;;;2.29;65.39;95520.81;5160379;27;20204;-75
2022/01/16 11:01:03;;;;;;;6.28;3.53;;;;;;;2.13;65.00;95501.94;5169364;27;20238;-72
2022/01/16 11:03:39;;;;;;;5.13;3.60;;;;;;;2.11;65.23;95498.72;5169696;27;20242;-74
2022/01/16 11:06:06;;;;;;;7.18;4.75;;;;;;;2.46;65.16;95494.75;5169133;27;20251;-75
2022/01/16 11:08:34;;;;;;;15.15;8.32;;;;;;;2.65;64.18;95501.31;5168765;27;20546;-74
2022/01/16 11:11:01;;;;;;;16.20;7.78;;;;;;;2.79;63.50;95499.81;5169451;27;20561;-74
2022/01/16 11:13:30;;;;;;;11.30;6.63;;;;;;;2.55;63.86;95497.75;5169601;27;20211;-73
2022/01/16 11:16:01;;;;;;;14.88;6.65;;;;;;;2.64;63.94;95502.38;5169163;27;20246;-71
2022/01/16 11:18:28;;;;;;;13.77;7.07;;;;;;;2.79;63.47;95493.66;5167250;27;20192;-75
2022/01/16 11:21:08;;;;;;;16.92;8.85;;;;;;;2.94;63.94;95490.28;5168452;27;20725;-75
2022/01/16 11:23:47;;;;;;;19.58;9.30;;;;;;;3.26;62.35;95482.97;5168798;27;20311;-76
2022/01/16 11:26:16;;;;;;;12.25;6.78;;;;;;;3.19;61.44;95482.38;5160503;27;20193;-76
2022/01/16 11:28:43;;;;;;;17.15;9.13;;;;;;;3.22;62.21;95481.88;5154855;27;20253;-76
2022/01/16 11:31:12;;;;;;;13.95;6.10;;;;;;;3.28;61.57;95475.47;5151667;27;20224;-77
2022/01/16 11:33:41;;;;;;;19.42;10.70;;;;;;;3.23;61.75;95459.41;5155137;27;20224;-78
2022/01/16 11:36:13;;;;;;;17.60;9.30;;;;;;;3.48;62.62;95464.84;5155224;27;20719;-78
2022/01/16 11:38:43;;;;;;;19.58;9.43;;;;;;;3.43;61.71;95470.19;5153898;27;20243;-77
2022/01/16 11:41:14;;;;;;;20.83;9.52;;;;;;;3.18;61.52;95459.38;5154904;27;20658;-77
2022/01/16 11:43:45;;;;;;;19.20;8.55;;;;;;;3.22;62.00;95455.91;5154734;27;20193;-78
2022/01/16 11:46:15;;;;;;;16.90;7.20;;;;;;;3.38;61.40;95448.75;5154129;27;20235;-77
2022/01/16 11:48:46;;;;;;;23.45;9.52;;;;;;;3.64;60.85;95451.50;5155259;27;20215;-79
2022/01/16 11:51:51;;;;;;;19.85;9.02;;;;;;;3.87;60.19;95445.66;5155257;27;20189;-80
2022/01/16 11:54:37;;;;;;;17.75;9.45;;;;;;;3.53;60.62;95451.50;5142550;27;20234;-75
2022/01/16 11:57:21;;;;;;;15.88;8.43;;;;;;;3.27;61.33;95455.13;5152099;27;20192;-79
2022/01/16 11:59:53;;;;;;;18.42;9.38;;;;;;;3.38;61.26;95438.03;5154636;27;20219;-76
2022/01/16 12:02:35;;;;;;;24.50;9.05;;;;;;;3.69;60.57;95446.97;5154947;27;20188;-77
2022/01/16 12:05:04;;;;;;;22.08;10.88;;;;;;;3.33;61.00;95448.72;5154430;27;20200;-76
2022/01/16 12:07:51;;;;;;;23.90;9.88;;;;;;;3.68;60.88;95431.19;5153099;27;20235;-76
2022/01/16 12:10:47;;;;;;;18.30;10.00;;;;;;;3.94;59.55;95432.84;5141406;27;20311;-76
2022/01/16 12:13:55;;;;;;;17.52;9.20;;;;;;;4.21;59.15;95430.72;5153494;27;20184;-78
2022/01/16 12:16:43;;;;;;;17.73;7.75;;;;;;;4.07;59.43;95440.34;5151294;27;20673;-79
2022/01/16 12:19:43;;;;;;;8.38;4.53;;;;;;;3.51;60.04;95431.38;5152585;27;20194;-79
2022/01/16 12:22:14;;;;;;;10.15;6.22;;;;;;;3.31;61.13;95429.44;5150014;27;20212;-79